Time;durP1;ratioP1;P1;durP2;ratioP2;P2;SDS_P1;SDS_P2;PMS_P1;PMS_P2;Temp;Humidity;BMP_temperature;BMP_pressure;BME280_temperature;BME280_humidity;BME280_pressure;Samples;Min_cycle;Max_cycle;Signal;HPM_P1;HPM_P2
2023/05/07 00:01:46;;;;;;;20.02;13.20;;;13.00;99.90;;;;;;5033850;28;20379;-69
2023/05/07 00:04:13;;;;;;;22.85;14.52;;;12.90;99.90;;;;;;4998814;28;20047;-69
2023/05/07 00:06:38;;;;;;;19.55;14.27;;;12.90;99.90;;;;;;5048643;28;20189;-69
2023/05/07 00:09:04;;;;;;;21.00;14.35;;;12.90;99.90;;;;;;5031722;28;20509;-70
2023/05/07 00:11:31;;;;;;;20.38;14.85;;;12.90;99.90;;;;;;5049778;28;20040;-69
2023/05/07 00:13:57;;;;;;;21.83;15.70;;;12.80;99.90;;;;;;5027978;28;20052;-69
2023/05/07 00:16:22;;;;;;;20.75;15.40;;;12.80;99.90;;;;;;5050664;28;20577;-70
2023/05/07 00:18:48;;;;;;;23.63;16.17;;;12.70;99.90;;;;;;5037935;28;20471;-70
2023/05/07 00:21:14;;;;;;;20.95;14.82;;;12.70;99.90;;;;;;5048844;28;20032;-69
2023/05/07 00:23:40;;;;;;;21.02;14.65;;;12.60;99.90;;;;;;5048592;28;20485;-69
2023/05/07 00:26:06;;;;;;;23.35;15.75;;;12.60;99.90;;;;;;5029034;28;20032;-69
2023/05/07 00:28:31;;;;;;;20.80;15.32;;;12.50;99.90;;;;;;5030856;28;20048;-69
2023/05/07 00:30:57;;;;;;;23.25;16.60;;;12.40;99.90;;;;;;5016299;28;20053;-69
2023/05/07 00:33:23;;;;;;;24.92;16.17;;;12.40;99.90;;;;;;5049821;28;20451;-69
2023/05/07 00:35:49;;;;;;;20.35;14.65;;;12.30;99.90;;;;;;5048004;28;20040;-69
2023/05/07 00:38:15;;;;;;;22.45;16.08;;;12.30;99.90;;;;;;5048279;28;20033;-69
2023/05/07 00:40:40;;;;;;;21.58;15.98;;;12.30;99.90;;;;;;5048536;28;20033;-69
2023/05/07 00:43:06;;;;;;;22.73;16.23;;;12.30;99.90;;;;;;5049052;28;20111;-69
2023/05/07 00:45:33;;;;;;;25.08;17.58;;;12.20;99.90;;;;;;5048126;28;20129;-69
2023/05/07 00:48:01;;;;;;;25.27;16.95;;;12.20;99.90;;;;;;5048384;28;20037;-69
2023/05/07 00:50:30;;;;;;;21.60;16.33;;;12.10;99.90;;;;;;5046777;28;20043;-69
2023/05/07 00:52:56;;;;;;;22.25;16.15;;;12.10;99.90;;;;;;5066250;28;20398;-69
2023/05/07 00:55:22;;;;;;;22.45;15.55;;;12.10;99.90;;;;;;5046913;28;20032;-69
2023/05/07 00:57:50;;;;;;;25.77;16.75;;;12.00;99.90;;;;;;5047902;28;20171;-69
2023/05/07 01:00:16;;;;;;;23.95;16.95;;;12.00;99.90;;;;;;5047389;28;20455;-69
2023/05/07 01:02:43;;;;;;;25.52;17.60;;;11.90;99.90;;;;;;5046963;28;20033;-69
2023/05/07 01:05:12;;;;;;;25.55;17.10;;;11.90;99.90;;;;;;5030460;28;20093;-69
2023/05/07 01:07:41;;;;;;;27.25;18.38;;;11.90;99.90;;;;;;5030760;28;20040;-69
2023/05/07 01:10:09;;;;;;;24.80;17.30;;;11.80;99.90;;;;;;5047582;28;20032;-69
2023/05/07 01:12:37;;;;;;;26.20;17.10;;;11.80;99.90;;;;;;5047545;28;20046;-69
2023/05/07 01:15:05;;;;;;;28.02;17.45;;;11.70;99.90;;;;;;5063944;28;20160;-69
2023/05/07 01:17:39;;;;;;;25.42;16.50;;;11.70;99.90;;;;;;5045245;28;20397;-69
2023/05/07 01:20:07;;;;;;;28.70;17.90;;;11.70;99.90;;;;;;5046003;28;20045;-69
2023/05/07 01:22:34;;;;;;;26.95;18.33;;;11.60;99.90;;;;;;5048445;28;20036;-69
2023/05/07 01:25:01;;;;;;;29.75;18.63;;;11.60;99.90;;;;;;5030238;28;20044;-69
2023/05/07 01:27:27;;;;;;;25.83;17.77;;;11.60;99.90;;;;;;5014986;28;20043;-69
2023/05/07 01:29:53;;;;;;;31.15;19.85;;;11.60;99.90;;;;;;5046940;28;20068;-69
2023/05/07 01:32:25;;;;;;;30.90;19.73;;;11.60;99.90;;;;;;5016918;28;20122;-69
2023/05/07 01:34:52;;;;;;;31.40;18.35;;;11.50;99.90;;;;;;5045094;28;20052;-69
2023/05/07 01:37:18;;;;;;;27.95;19.08;;;11.50;99.90;;;;;;5031717;28;20033;-69
2023/05/07 01:39:45;;;;;;;32.17;20.17;;;11.40;99.90;;;;;;5045954;28;20044;-69
2023/05/07 01:42:10;;;;;;;31.33;20.00;;;11.40;99.90;;;;;;5048123;28;20040;-69
2023/05/07 01:44:36;;;;;;;31.52;20.35;;;11.40;99.90;;;;;;5034064;28;20169;-69
2023/05/07 01:47:03;;;;;;;31.95;19.98;;;11.40;99.90;;;;;;5046624;28;20074;-68
2023/05/07 01:49:30;;;;;;;30.55;19.08;;;11.30;99.90;;;;;;5031340;28;20040;-69
2023/05/07 01:51:56;;;;;;;29.23;20.30;;;11.30;99.90;;;;;;5044842;28;20040;-69
2023/05/07 01:54:29;;;;;;;33.65;20.85;;;11.30;99.90;;;;;;5046794;28;20036;-68
2023/05/07 01:56:56;;;;;;;31.80;21.25;;;11.30;99.90;;;;;;5045823;28;20165;-68
2023/05/07 01:59:22;;;;;;;33.38;20.83;;;11.30;99.90;;;;;;5047817;28;20044;-68
2023/05/07 02:01:48;;;;;;;33.47;21.77;;;11.20;99.90;;;;;;5048267;28;20500;-68
2023/05/07 02:04:14;;;;;;;35.30;21.10;;;11.20;99.90;;;;;;5067275;28;20028;-68
2023/05/07 02:06:40;;;;;;;36.75;22.23;;;11.20;99.90;;;;;;5047110;28;20036;-69
2023/05/07 02:09:06;;;;;;;36.13;22.05;;;11.20;99.90;;;;;;5028979;28;20044;-68
2023/05/07 02:11:32;;;;;;;33.75;20.48;;;11.10;99.90;;;;;;5047809;28;20047;-68
2023/05/07 02:13:58;;;;;;;38.13;22.83;;;11.10;99.90;;;;;;5034527;28;20044;-68
2023/05/07 02:16:24;;;;;;;38.22;22.38;;;11.10;99.90;;;;;;5046767;28;20036;-68
2023/05/07 02:18:49;;;;;;;41.33;24.65;;;11.00;99.90;;;;;;5046976;28;20041;-68
2023/05/07 02:21:15;;;;;;;42.22;23.05;;;11.00;99.90;;;;;;5047226;28;20074;-68
2023/05/07 02:23:41;;;;;;;39.88;23.85;;;11.00;99.90;;;;;;5032552;28;20037;-68
2023/05/07 02:26:07;;;;;;;35.28;23.08;;;11.00;99.90;;;;;;5047198;28;20045;-68
2023/05/07 02:28:35;;;;;;;38.67;24.33;;;10.90;99.90;;;;;;5031429;28;20070;-68
2023/05/07 02:31:02;;;;;;;42.22;24.60;;;10.90;99.90;;;;;;5028823;28;20048;-68
2023/05/07 02:33:29;;;;;;;40.78;24.40;;;10.90;99.90;;;;;;5041521;28;20040;-68
2023/05/07 02:35:54;;;;;;;40.72;25.23;;;10.90;99.90;;;;;;5047161;28;20053;-68
2023/05/07 02:38:20;;;;;;;47.08;25.70;;;10.90;99.90;;;;;;5047495;28;20037;-68
2023/05/07 02:40:46;;;;;;;44.13;25.63;;;10.90;99.90;;;;;;5049854;28;20404;-69
2023/05/07 02:43:12;;;;;;;43.63;25.90;;;10.90;99.90;;;;;;5030277;28;20094;-68
2023/05/07 02:45:37;;;;;;;42.33;25.10;;;10.80;99.90;;;;;;5068476;28;20045;-68
2023/05/07 02:48:05;;;;;;;41.90;26.30;;;10.90;99.90;;;;;;5046726;28;20045;-68
2023/05/07 02:50:32;;;;;;;42.28;25.73;;;10.80;99.90;;;;;;5031909;28;20501;-68
2023/05/07 02:52:58;;;;;;;46.83;26.95;;;10.80;99.90;;;;;;5050622;28;20036;-68
2023/05/07 02:55:27;;;;;;;43.63;26.58;;;10.80;99.90;;;;;;5053225;28;20064;-68
2023/05/07 02:57:53;;;;;;;44.35;26.63;;;10.80;99.90;;;;;;5049527;28;20037;-68
2023/05/07 03:00:20;;;;;;;45.63;26.33;;;10.80;99.90;;;;;;5016489;28;20444;-68
2023/05/07 03:02:46;;;;;;;43.22;26.10;;;10.80;99.90;;;;;;5050021;28;20070;-68
2023/05/07 03:05:12;;;;;;;42.65;26.25;;;10.80;99.90;;;;;;5052750;28;20040;-68
2023/05/07 03:07:38;;;;;;;45.75;26.73;;;10.80;99.90;;;;;;5015557;28;20043;-68
2023/05/07 03:10:05;;;;;;;44.95;27.23;;;10.80;99.90;;;;;;5049699;28;20044;-68
2023/05/07 03:12:31;;;;;;;46.80;26.65;;;10.80;99.90;;;;;;5051176;28;20414;-68
2023/05/07 03:14:57;;;;;;;44.03;27.15;;;10.70;99.90;;;;;;5051012;28;20109;-68
2023/05/07 03:17:22;;;;;;;45.08;25.73;;;10.70;99.90;;;;;;5049313;28;20754;-69
2023/05/07 03:19:48;;;;;;;45.97;26.60;;;10.70;99.90;;;;;;5051946;28;20035;-68
2023/05/07 03:22:14;;;;;;;46.47;27.70;;;10.70;99.90;;;;;;5049313;28;20513;-68
2023/05/07 03:24:40;;;;;;;49.47;28.10;;;10.70;99.90;;;;;;5050499;28;20032;-68
2023/05/07 03:27:06;;;;;;;46.03;27.45;;;10.70;99.90;;;;;;5029651;28;20043;-68
2023/05/07 03:29:31;;;;;;;44.30;26.83;;;10.70;99.90;;;;;;5049693;28;20151;-68
2023/05/07 03:31:57;;;;;;;44.22;27.35;;;10.70;99.90;;;;;;5045909;28;20047;-68
2023/05/07 03:34:23;;;;;;;46.97;27.40;;;10.60;99.90;;;;;;5020039;28;20564;-68
2023/05/07 03:36:49;;;;;;;45.72;26.13;;;10.60;99.90;;;;;;5049821;28;20052;-68
2023/05/07 03:39:15;;;;;;;41.70;25.85;;;10.70;99.90;;;;;;5032736;28;20417;-68
2023/05/07 03:41:41;;;;;;;42.97;26.38;;;10.60;99.90;;;;;;5030371;28;20043;-68
2023/05/07 03:44:07;;;;;;;42.17;26.23;;;10.60;99.90;;;;;;5050823;28;20036;-68
2023/05/07 03:46:33;;;;;;;43.25;25.00;;;10.60;99.90;;;;;;5049344;28;20131;-68
2023/05/07 03:48:59;;;;;;;46.45;26.33;;;10.60;99.90;;;;;;5028970;28;20521;-68
2023/05/07 03:51:25;;;;;;;43.85;26.50;;;10.60;99.90;;;;;;5030429;28;20120;-68
2023/05/07 03:53:54;;;;;;;45.30;26.15;;;10.60;99.90;;;;;;4995989;28;20124;-68
2023/05/07 03:56:20;;;;;;;37.92;25.13;;;10.60;99.90;;;;;;5046831;28;20348;-68
2023/05/07 03:58:47;;;;;;;41.22;24.73;;;10.60;99.90;;;;;;5048200;28;20063;-68
2023/05/07 04:01:13;;;;;;;43.80;24.88;;;10.60;99.90;;;;;;5047968;28;20067;-68
2023/05/07 04:03:39;;;;;;;38.67;23.85;;;10.60;99.90;;;;;;5032523;28;20482;-68
2023/05/07 04:06:05;;;;;;;40.55;25.30;;;10.60;99.90;;;;;;5047842;28;20032;-68
2023/05/07 04:08:30;;;;;;;37.15;24.27;;;10.50;99.90;;;;;;5047964;28;20040;-68
2023/05/07 04:10:59;;;;;;;36.47;22.55;;;10.50;99.90;;;;;;5015099;28;20466;-68
2023/05/07 04:13:25;;;;;;;38.15;23.33;;;10.50;99.90;;;;;;5047811;28;20044;-68
2023/05/07 04:15:52;;;;;;;39.63;23.80;;;10.50;99.90;;;;;;5047995;28;20048;-68
2023/05/07 04:18:18;;;;;;;32.45;21.38;;;10.50;99.90;;;;;;5044230;28;20119;-68
2023/05/07 04:20:43;;;;;;;37.53;23.70;;;10.50;99.90;;;;;;5033986;28;20120;-68
2023/05/07 04:23:09;;;;;;;37.65;23.27;;;10.50;99.90;;;;;;5051327;28;20037;-68
2023/05/07 04:25:35;;;;;;;36.63;23.48;;;10.50;99.90;;;;;;5035666;28;20106;-68
2023/05/07 04:28:01;;;;;;;39.47;23.55;;;10.50;99.90;;;;;;5050123;28;20086;-68
2023/05/07 04:30:27;;;;;;;33.58;20.90;;;10.50;99.90;;;;;;5043932;28;20040;-68
2023/05/07 04:32:52;;;;;;;35.42;22.67;;;10.50;99.90;;;;;;5049085;28;20044;-69
2023/05/07 04:35:19;;;;;;;33.53;21.17;;;10.50;99.90;;;;;;5052118;28;20112;-68
2023/05/07 04:37:44;;;;;;;36.28;22.08;;;10.50;99.90;;;;;;5034976;28;20055;-68
2023/05/07 04:40:10;;;;;;;34.40;22.70;;;10.50;99.90;;;;;;5047144;28;20498;-68
2023/05/07 04:42:36;;;;;;;33.90;22.27;;;10.40;99.90;;;;;;5015990;28;20032;-68
2023/05/07 04:45:02;;;;;;;33.95;21.02;;;10.50;99.90;;;;;;5031589;28;20050;-68
2023/05/07 04:47:28;;;;;;;34.80;21.45;;;10.50;99.90;;;;;;5026287;28;20074;-68
2023/05/07 04:49:54;;;;;;;36.45;22.48;;;10.50;99.90;;;;;;5038194;28;20502;-68
2023/05/07 04:52:20;;;;;;;31.52;21.33;;;10.50;99.90;;;;;;5044098;28;20040;-68
2023/05/07 04:54:45;;;;;;;33.25;21.25;;;10.50;99.90;;;;;;5026387;28;20092;-68
2023/05/07 04:57:11;;;;;;;34.63;21.42;;;10.50;99.90;;;;;;5047844;28;20510;-68
2023/05/07 04:59:37;;;;;;;34.97;21.73;;;10.50;99.90;;;;;;5025203;28;20461;-68
2023/05/07 05:02:04;;;;;;;34.42;22.10;;;10.50;99.90;;;;;;5042490;28;20040;-68
2023/05/07 05:04:30;;;;;;;35.47;21.95;;;10.50;99.90;;;;;;5046289;28;20043;-68
2023/05/07 05:06:55;;;;;;;34.67;21.92;;;10.50;99.90;;;;;;5044943;28;20413;-68
2023/05/07 05:09:21;;;;;;;34.30;21.60;;;10.60;99.90;;;;;;5042156;28;20041;-69
2023/05/07 05:11:47;;;;;;;31.77;19.77;;;10.60;99.90;;;;;;5047279;28;20090;-68
2023/05/07 05:14:13;;;;;;;32.30;21.38;;;10.60;99.90;;;;;;5046051;28;20041;-69
2023/05/07 05:16:39;;;;;;;35.10;22.23;;;10.60;99.90;;;;;;5048582;28;20122;-69
2023/05/07 05:19:05;;;;;;;31.00;20.63;;;10.70;99.90;;;;;;5014869;28;20060;-69
2023/05/07 05:21:31;;;;;;;31.58;21.13;;;10.70;99.90;;;;;;5049941;28;20375;-68
2023/05/07 05:23:57;;;;;;;36.33;21.52;;;10.80;99.90;;;;;;5022766;28;20045;-69
2023/05/07 05:26:23;;;;;;;36.00;21.58;;;10.90;99.90;;;;;;5047110;28;20037;-68
2023/05/07 05:28:49;;;;;;;35.03;21.65;;;10.90;99.90;;;;;;5013228;28;20124;-68
2023/05/07 05:31:16;;;;;;;32.95;21.52;;;11.00;99.90;;;;;;5032232;28;20090;-68
2023/05/07 05:33:42;;;;;;;33.20;20.02;;;11.00;99.90;;;;;;5031619;28;20041;-68
2023/05/07 05:36:12;;;;;;;36.17;21.10;;;11.10;99.90;;;;;;5049102;28;20498;-68
2023/05/07 05:38:39;;;;;;;31.55;20.23;;;11.10;99.90;;;;;;5030393;28;20095;-68
2023/05/07 05:41:04;;;;;;;32.33;21.05;;;11.20;99.90;;;;;;5030886;28;20505;-69
2023/05/07 05:43:30;;;;;;;39.20;23.52;;;11.20;99.90;;;;;;5031485;28;20036;-68
2023/05/07 05:45:56;;;;;;;33.90;20.90;;;11.20;99.90;;;;;;5045203;28;20053;-68
2023/05/07 05:48:22;;;;;;;31.67;21.33;;;11.30;99.90;;;;;;5047694;28;20494;-69
2023/05/07 05:50:48;;;;;;;34.15;22.30;;;11.30;99.90;;;;;;5044661;28;20047;-69
2023/05/07 05:53:15;;;;;;;33.28;21.30;;;11.40;99.90;;;;;;5030731;28;20136;-69
2023/05/07 05:55:41;;;;;;;32.75;20.92;;;11.50;99.90;;;;;;5042231;28;21255;-69
2023/05/07 05:58:08;;;;;;;32.22;21.98;;;11.50;99.90;;;;;;5049130;28;20137;-69
2023/05/07 06:00:34;;;;;;;33.47;22.70;;;11.60;99.90;;;;;;5047806;28;20564;-69
2023/05/07 06:02:59;;;;;;;30.02;21.05;;;11.60;99.90;;;;;;5045039;28;20033;-69
2023/05/07 06:05:25;;;;;;;37.95;22.38;;;11.60;99.90;;;;;;5031564;28;20397;-69
2023/05/07 06:07:51;;;;;;;30.10;19.90;;;11.70;99.90;;;;;;5027885;28;20450;-69
2023/05/07 06:10:17;;;;;;;34.33;21.92;;;11.70;99.90;;;;;;5029843;28;20410;-69
2023/05/07 06:12:42;;;;;;;31.88;21.20;;;11.70;99.90;;;;;;5033495;28;20059;-69
2023/05/07 06:15:08;;;;;;;35.55;22.73;;;11.70;99.90;;;;;;5051279;28;20372;-69
2023/05/07 06:17:34;;;;;;;32.83;20.50;;;11.70;99.90;;;;;;5050074;28;20041;-69
2023/05/07 06:20:00;;;;;;;34.05;20.55;;;11.70;99.90;;;;;;5044696;28;20114;-69
2023/05/07 06:22:26;;;;;;;33.03;20.90;;;11.60;99.90;;;;;;5046092;28;20040;-69
2023/05/07 06:24:51;;;;;;;33.90;22.08;;;11.60;99.90;;;;;;5032031;28;20069;-69
2023/05/07 06:27:17;;;;;;;35.60;21.58;;;11.70;99.90;;;;;;5044165;28;20037;-69
2023/05/07 06:29:43;;;;;;;34.60;21.08;;;11.60;99.90;;;;;;5046954;28;20040;-69
2023/05/07 06:32:13;;;;;;;31.92;21.02;;;11.70;99.90;;;;;;5044934;28;20029;-69
2023/05/07 06:34:40;;;;;;;34.25;22.83;;;11.60;99.90;;;;;;5045734;28;20048;-69
2023/05/07 06:37:09;;;;;;;35.97;22.50;;;11.70;99.90;;;;;;5045669;28;20471;-70
2023/05/07 06:39:34;;;;;;;31.02;20.80;;;11.70;99.90;;;;;;5030530;28;20102;-69
2023/05/07 06:42:02;;;;;;;33.28;21.83;;;11.70;99.90;;;;;;5045720;28;20045;-69
2023/05/07 06:44:27;;;;;;;34.83;21.40;;;11.70;99.90;;;;;;5044946;28;20104;-69
2023/05/07 06:46:53;;;;;;;29.58;19.92;;;11.80;99.90;;;;;;5045695;28;20129;-69
2023/05/07 06:49:19;;;;;;;33.05;20.35;;;11.80;99.90;;;;;;5024726;28;20503;-68
2023/05/07 06:51:45;;;;;;;33.33;21.33;;;11.80;99.90;;;;;;5045964;28;20495;-69
2023/05/07 06:54:10;;;;;;;32.30;21.98;;;11.90;99.90;;;;;;5048691;28;20106;-69
2023/05/07 06:56:36;;;;;;;32.00;20.65;;;11.90;99.90;;;;;;5044668;28;20040;-69
2023/05/07 06:59:03;;;;;;;36.40;22.75;;;11.90;99.90;;;;;;5031427;28;20070;-69
2023/05/07 07:01:29;;;;;;;33.00;21.88;;;12.00;99.90;;;;;;5026648;28;20040;-69
2023/05/07 07:03:55;;;;;;;35.55;20.50;;;12.00;99.90;;;;;;5047818;28;20072;-69
2023/05/07 07:06:20;;;;;;;33.92;22.00;;;12.00;99.90;;;;;;5044955;28;20124;-69
2023/05/07 07:08:46;;;;;;;35.33;22.52;;;12.00;99.90;;;;;;5007247;28;20147;-69
2023/05/07 07:11:12;;;;;;;31.75;21.17;;;12.00;99.90;;;;;;5032756;28;20096;-69
2023/05/07 07:13:38;;;;;;;34.15;21.98;;;12.00;99.90;;;;;;5031696;28;20426;-69
2023/05/07 07:16:04;;;;;;;35.53;22.05;;;12.10;99.90;;;;;;5031840;28;20478;-69
2023/05/07 07:18:29;;;;;;;36.83;23.15;;;12.20;99.90;;;;;;5044068;28;20521;-69
2023/05/07 07:20:55;;;;;;;35.30;22.70;;;12.10;99.90;;;;;;5045076;28;20037;-69
2023/05/07 07:23:21;;;;;;;36.33;22.33;;;12.10;99.90;;;;;;5029061;28;20456;-69
2023/05/07 07:25:47;;;;;;;32.08;21.80;;;12.10;99.90;;;;;;5044940;28;20041;-69
2023/05/07 07:28:13;;;;;;;34.70;21.80;;;12.20;99.90;;;;;;5046406;28;20037;-69
2023/05/07 07:30:39;;;;;;;37.60;22.25;;;12.10;99.90;;;;;;5027390;28;20040;-70
2023/05/07 07:33:05;;;;;;;33.50;22.05;;;12.20;99.90;;;;;;5048629;28;20060;-69
2023/05/07 07:35:34;;;;;;;33.97;22.42;;;12.20;99.90;;;;;;5028971;28;20094;-69
2023/05/07 07:38:01;;;;;;;34.90;22.55;;;12.40;99.90;;;;;;5029534;28;20064;-67
2023/05/07 07:40:27;;;;;;;36.90;22.55;;;12.50;99.90;;;;;;5044547;28;20044;-67
2023/05/07 07:42:53;;;;;;;36.72;23.08;;;12.60;99.90;;;;;;5046095;28;20047;-68
2023/05/07 07:45:19;;;;;;;33.70;21.95;;;12.70;99.90;;;;;;5028893;28;20132;-67
2023/05/07 07:47:45;;;;;;;33.88;21.92;;;12.80;99.90;;;;;;5043227;28;20102;-68
2023/05/07 07:50:11;;;;;;;38.65;24.13;;;12.90;99.90;;;;;;5045878;28;20045;-67
2023/05/07 07:52:37;;;;;;;33.17;21.85;;;13.00;99.90;;;;;;5045328;28;20040;-67
2023/05/07 07:55:04;;;;;;;33.38;22.05;;;13.10;99.90;;;;;;5041680;28;20045;-67
2023/05/07 07:57:30;;;;;;;32.20;20.95;;;13.10;99.90;;;;;;5050718;28;20075;-67
2023/05/07 07:59:56;;;;;;;30.52;20.35;;;13.10;99.90;;;;;;5055514;28;20048;-68
2023/05/07 08:02:22;;;;;;;32.97;22.45;;;13.10;99.90;;;;;;5047898;28;20406;-68
2023/05/07 08:04:47;;;;;;;32.85;21.27;;;13.10;99.90;;;;;;5048646;28;20037;-67
2023/05/07 08:07:13;;;;;;;36.05;22.20;;;13.00;99.90;;;;;;5016693;28;20099;-67
2023/05/07 08:09:40;;;;;;;30.92;20.77;;;13.00;99.90;;;;;;5047779;28;20071;-67
2023/05/07 08:12:06;;;;;;;32.08;20.85;;;13.10;99.90;;;;;;5045166;28;20068;-67
2023/05/07 08:14:32;;;;;;;33.78;22.27;;;13.10;99.90;;;;;;5027365;28;20076;-68
2023/05/07 08:16:58;;;;;;;32.88;20.80;;;13.20;99.90;;;;;;5030430;28;20045;-68
2023/05/07 08:19:24;;;;;;;31.52;21.20;;;13.20;99.90;;;;;;5028474;28;20052;-67
2023/05/07 08:21:50;;;;;;;29.88;20.80;;;13.20;99.90;;;;;;5040651;28;20041;-67
2023/05/07 08:24:17;;;;;;;28.08;20.27;;;13.20;99.90;;;;;;5046833;28;20040;-67
2023/05/07 08:26:43;;;;;;;30.30;21.52;;;13.30;99.90;;;;;;5050787;28;20040;-67
2023/05/07 08:29:09;;;;;;;27.33;20.15;;;13.20;99.90;;;;;;5041658;28;20068;-67
2023/05/07 08:31:35;;;;;;;30.17;20.63;;;13.30;99.90;;;;;;5011613;28;20075;-67
2023/05/07 08:34:01;;;;;;;29.45;19.70;;;13.40;99.90;;;;;;5026551;28;20037;-67
2023/05/07 08:36:28;;;;;;;29.85;20.13;;;13.50;99.90;;;;;;5042649;28;20041;-69
2023/05/07 08:38:54;;;;;;;30.05;20.27;;;13.50;99.90;;;;;;5012070;28;20041;-69
2023/05/07 08:41:20;;;;;;;27.83;19.60;;;13.60;99.90;;;;;;5045860;28;20044;-69
2023/05/07 08:43:51;;;;;;;30.60;20.05;;;13.70;99.90;;;;;;5043437;28;20090;-69
2023/05/07 08:46:21;;;;;;;32.35;20.35;;;13.80;99.90;;;;;;5044572;28;20422;-69
2023/05/07 08:48:51;;;;;;;26.38;19.63;;;13.90;99.90;;;;;;5048071;28;20551;-67
2023/05/07 08:51:21;;;;;;;28.20;19.30;;;14.00;99.90;;;;;;5031566;28;20093;-69
2023/05/07 08:53:48;;;;;;;26.33;18.98;;;14.30;99.90;;;;;;5032640;28;20076;-67
2023/05/07 08:56:18;;;;;;;29.45;18.95;;;14.50;99.90;;;;;;5045124;28;20045;-67
2023/05/07 08:58:44;;;;;;;26.95;18.90;;;14.70;99.90;;;;;;5046370;28;20502;-67
2023/05/07 09:01:14;;;;;;;24.67;18.27;;;15.00;99.90;;;;;;5030805;28;20119;-67
2023/05/07 09:03:41;;;;;;;27.63;19.00;;;15.20;99.90;;;;;;5024544;28;20043;-67
2023/05/07 09:06:07;;;;;;;24.63;18.75;;;15.50;99.90;;;;;;5031100;28;20072;-69
2023/05/07 09:08:33;;;;;;;26.50;18.27;;;16.10;99.90;;;;;;5028159;28;20469;-67
2023/05/07 09:10:59;;;;;;;24.10;18.70;;;16.30;99.90;;;;;;5045816;28;20047;-69
2023/05/07 09:13:27;;;;;;;21.83;17.50;;;16.60;99.90;;;;;;5025321;28;20037;-69
2023/05/07 09:15:52;;;;;;;22.70;16.95;;;16.80;99.90;;;;;;5048050;28;20052;-69
2023/05/07 09:18:18;;;;;;;23.20;17.33;;;17.00;99.90;;;;;;5029849;28;20409;-69
2023/05/07 09:20:44;;;;;;;21.58;17.05;;;17.40;99.90;;;;;;5021097;28;20133;-69
2023/05/07 09:23:10;;;;;;;22.83;16.80;;;17.60;99.90;;;;;;5010935;28;20428;-69
2023/05/07 09:25:36;;;;;;;23.77;17.65;;;17.60;99.90;;;;;;5028970;28;20036;-69
2023/05/07 09:28:03;;;;;;;22.17;16.48;;;17.50;99.90;;;;;;5028283;28;20123;-68
2023/05/07 09:30:30;;;;;;;22.25;17.00;;;17.60;99.90;;;;;;5026925;28;20090;-68
2023/05/07 09:33:00;;;;;;;20.38;15.20;;;17.70;99.90;;;;;;5027380;28;21047;-68
2023/05/07 09:35:27;;;;;;;20.67;15.18;;;17.50;99.90;;;;;;5028957;28;20131;-68
2023/05/07 09:37:54;;;;;;;19.77;15.75;;;17.40;99.90;;;;;;5036952;28;20048;-67
2023/05/07 09:40:25;;;;;;;19.52;16.33;;;17.30;99.90;;;;;;5029890;28;20401;-67
2023/05/07 09:42:51;;;;;;;18.88;15.45;;;17.20;99.90;;;;;;5045888;28;20092;-67
2023/05/07 09:45:27;;;;;;;20.13;15.85;;;17.10;99.90;;;;;;5042170;28;20043;-67
2023/05/07 09:47:57;;;;;;;19.35;16.08;;;17.00;99.90;;;;;;5045721;28;20141;-67
2023/05/07 09:50:32;;;;;;;21.63;15.57;;;17.10;99.90;;;;;;5044128;28;20177;-67
2023/05/07 09:52:58;;;;;;;19.67;16.10;;;17.10;99.90;;;;;;5047572;28;20044;-67
2023/05/07 09:55:25;;;;;;;19.88;16.30;;;17.00;99.90;;;;;;5032613;28;20043;-67
2023/05/07 09:57:52;;;;;;;20.40;15.98;;;17.20;99.90;;;;;;5048915;28;20052;-67
2023/05/07 10:00:22;;;;;;;22.65;16.30;;;17.40;99.90;;;;;;5052044;28;20443;-67
2023/05/07 10:02:51;;;;;;;19.15;14.65;;;17.70;99.90;;;;;;5045936;28;20037;-67
2023/05/07 10:05:18;;;;;;;20.20;15.13;;;18.10;99.90;;;;;;5048974;28;20089;-67
2023/05/07 10:07:45;;;;;;;17.67;14.05;;;18.40;99.90;;;;;;5033049;28;20117;-67
2023/05/07 10:10:12;;;;;;;18.98;14.82;;;18.80;99.90;;;;;;5033952;28;20047;-67
2023/05/07 10:12:40;;;;;;;16.42;14.20;;;19.50;99.90;;;;;;5051141;28;20083;-67
2023/05/07 10:15:06;;;;;;;15.55;13.60;;;19.90;99.90;;;;;;5033810;28;20040;-67
2023/05/07 10:17:34;;;;;;;18.30;14.70;;;20.00;99.90;;;;;;5032931;28;20044;-67
2023/05/07 10:20:00;;;;;;;19.58;13.65;;;20.10;99.90;;;;;;5029010;28;20048;-67
2023/05/07 10:22:27;;;;;;;18.10;14.88;;;20.30;99.90;;;;;;5069198;28;20043;-67
2023/05/07 10:24:54;;;;;;;18.42;14.75;;;20.10;99.90;;;;;;5047731;28;20064;-67
2023/05/07 10:27:22;;;;;;;18.55;15.68;;;20.00;99.90;;;;;;5046699;28;20041;-67
2023/05/07 10:29:52;;;;;;;19.35;15.00;;;19.90;99.90;;;;;;5031963;28;20048;-68
2023/05/07 10:32:36;;;;;;;19.80;14.13;;;19.80;99.90;;;;;;5050232;28;20043;-67
2023/05/07 10:35:06;;;;;;;18.48;14.98;;;19.80;99.90;;;;;;5048419;28;20032;-67
2023/05/07 10:37:32;;;;;;;18.15;14.70;;;20.00;99.90;;;;;;5062757;28;20060;-67
2023/05/07 10:39:58;;;;;;;17.35;15.27;;;20.00;99.90;;;;;;5049017;28;20044;-68
2023/05/07 10:42:24;;;;;;;18.60;15.80;;;20.20;99.90;;;;;;5049404;28;20510;-68
2023/05/07 10:44:50;;;;;;;19.67;15.80;;;20.50;99.90;;;;;;5033634;28;20064;-68
2023/05/07 10:47:18;;;;;;;19.23;14.30;;;21.00;99.90;;;;;;5034250;28;20110;-67
2023/05/07 10:49:44;;;;;;;18.48;15.63;;;21.10;99.90;;;;;;5017565;28;20048;-67
2023/05/07 10:52:18;;;;;;;18.17;15.27;;;20.90;99.90;;;;;;5032150;28;20032;-68
2023/05/07 10:54:44;;;;;;;18.83;15.82;;;21.10;99.90;;;;;;5050472;28;20045;-68
2023/05/07 10:57:42;;;;;;;17.42;14.32;;;21.20;99.90;;;;;;5033608;28;20117;-67
2023/05/07 11:00:37;;;;;;;19.23;14.80;;;21.30;99.90;;;;;;5001611;28;20506;-67
2023/05/07 11:03:05;;;;;;;20.90;15.20;;;21.50;99.90;;;;;;5048421;28;20537;-67
2023/05/07 11:05:32;;;;;;;19.15;15.05;;;21.40;99.90;;;;;;5051220;28;20682;-67
2023/05/07 11:08:02;;;;;;;18.70;15.30;;;21.40;99.90;;;;;;5031496;28;20071;-67
2023/05/07 11:10:58;;;;;;;19.27;16.02;;;21.50;99.90;;;;;;5050478;28;21133;-67
2023/05/07 11:13:47;;;;;;;18.92;15.55;;;21.50;99.90;;;;;;5051316;28;20485;-68
2023/05/07 11:16:23;;;;;;;17.45;15.52;;;21.20;99.80;;;;;;5047346;28;20598;-68
2023/05/07 11:18:54;;;;;;;23.40;15.82;;;21.10;99.60;;;;;;5025945;28;20037;-67
2023/05/07 11:21:37;;;;;;;23.88;15.90;;;21.10;99.80;;;;;;5051158;28;20409;-68
2023/05/07 11:24:05;;;;;;;20.23;15.68;;;20.70;99.60;;;;;;5034324;28;20407;-68
2023/05/07 11:26:48;;;;;;;18.98;15.68;;;20.50;99.90;;;;;;5052427;28;20028;-68
2023/05/07 11:29:21;;;;;;;17.00;15.02;;;20.50;99.90;;;;;;5052134;28;20051;-68
2023/05/07 11:31:52;;;;;;;17.23;14.55;;;20.60;99.90;;;;;;5035534;28;20040;-67
2023/05/07 11:34:22;;;;;;;18.80;14.48;;;20.80;99.90;;;;;;5027721;28;20044;-68
2023/05/07 11:36:49;;;;;;;17.55;14.95;;;21.00;99.90;;;;;;5051317;28;20071;-67
2023/05/07 11:39:25;;;;;;;20.98;14.57;;;20.90;99.50;;;;;;5046584;28;20195;-67
2023/05/07 11:41:51;;;;;;;16.30;13.93;;;21.00;99.90;;;;;;5051480;28;20288;-68
2023/05/07 11:44:17;;;;;;;16.63;14.13;;;21.00;99.30;;;;;;5003672;28;20032;-68
2023/05/07 11:46:44;;;;;;;17.20;15.13;;;21.00;99.60;;;;;;5032444;28;20047;-68
2023/05/07 11:49:10;;;;;;;15.07;13.55;;;21.00;99.70;;;;;;5047818;28;20128;-68
2023/05/07 11:51:35;;;;;;;16.83;13.52;;;20.90;99.50;;;;;;5050649;28;20119;-68
2023/05/07 11:54:08;;;;;;;16.40;14.15;;;21.00;99.60;;;;;;5050276;28;20067;-68
2023/05/07 11:56:35;;;;;;;17.75;14.32;;;21.30;99.70;;;;;;5049825;28;20417;-68
2023/05/07 11:59:01;;;;;;;16.23;14.05;;;21.30;99.50;;;;;;5051476;28;20062;-68
2023/05/07 12:01:26;;;;;;;15.45;13.88;;;21.30;99.50;;;;;;5069994;28;20059;-68
2023/05/07 12:03:52;;;;;;;16.48;14.27;;;21.40;98.90;;;;;;5052768;28;20040;-68
2023/05/07 12:06:18;;;;;;;15.95;13.48;;;21.70;99.40;;;;;;5048022;28;20089;-68
2023/05/07 12:08:45;;;;;;;15.52;13.63;;;21.90;99.10;;;;;;5035050;28;20068;-68
2023/05/07 12:11:23;;;;;;;14.70;12.57;;;22.00;98.40;;;;;;5031735;28;20040;-69
2023/05/07 12:13:49;;;;;;;15.73;14.02;;;21.60;97.60;;;;;;5049062;28;20048;-68
2023/05/07 12:16:14;;;;;;;18.23;14.20;;;21.60;98.40;;;;;;5033979;28;20404;-68
2023/05/07 12:18:41;;;;;;;15.13;13.05;;;21.80;98.00;;;;;;5019226;28;20044;-68
2023/05/07 12:21:07;;;;;;;14.25;12.48;;;22.00;98.80;;;;;;5036269;28;20040;-67
2023/05/07 12:23:35;;;;;;;16.15;14.00;;;21.70;98.40;;;;;;5028044;28;20060;-68
2023/05/07 12:26:02;;;;;;;15.35;13.68;;;21.70;97.90;;;;;;5049271;28;20047;-68
2023/05/07 12:28:28;;;;;;;17.35;14.07;;;21.60;98.10;;;;;;5032348;28;20052;-68